Archival Weather

Chicago O'Hare International

Chicago, Illinois (KORD)

Report from: Sunday, March 6, 2022 2:58 AM CST
Current time: Saturday, February 4, 2023 11:08 PM CST

Current weather
Weather history
Weather forecast

Temperature9.4°C (48.9°F)
Wind chill4.8°C (40.6°F)
Dew point5.0°C (41.0°F)
Winds 26 kts (13.4 m/s, 29.9 mph) West-Southwest (250°)
Wind gusts 40 kts (20.6 m/s, 46 mph)
Peak wind 40 kts (20.6 m/s, 46 mph) West (260°) at 02:52
Visibility10 mi. (16.1 km)
Clouds Ceiling: Broken clouds 2,300 ft. (701 m)
Altimeter29.66 in.Hg (1004 mB)
Relative humidity74 %
Density altitude-241 ft. (-74 m)
Remarks System requires maintenance
Automated weather observing station with precipitation discriminator
Pressure rising rapidly
Flight conditions Marginal Visual Meteorological Conditions
Raw dataKORD 060858Z 25026G40KT 10SM BKN023 09/05 A2966 RMK AO2 PK WND 26040/0852 PRESRR T00940050 $
An unhandled exception has occurred. See browser dev tools for details. Reload 🗙